createdAt,value
2017-12-24T00:00:03.742Z,0
2017-12-24T00:01:13.452Z,0
2017-12-24T00:02:22.897Z,0
2017-12-24T00:03:32.859Z,0
2017-12-24T00:04:42.043Z,0
2017-12-24T00:05:51.744Z,0
2017-12-24T00:07:01.701Z,0
2017-12-24T00:08:11.687Z,0
2017-12-24T00:09:21.650Z,0
2017-12-24T00:10:31.599Z,0
2017-12-24T00:11:41.286Z,0
2017-12-24T00:12:50.982Z,0
2017-12-24T00:14:00.431Z,0
2017-12-24T00:15:10.386Z,0
2017-12-24T00:16:20.345Z,0
2017-12-24T00:17:30.317Z,0
2017-12-24T00:18:40.281Z,0
2017-12-24T00:19:50.236Z,0
2017-12-24T00:21:00.210Z,0
2017-12-24T00:22:10.161Z,0
2017-12-24T00:23:19.859Z,0
2017-12-24T00:24:29.554Z,0
2017-12-24T00:25:39.509Z,0
2017-12-24T00:26:49.463Z,0
2017-12-24T00:27:59.160Z,0
2017-12-24T00:29:09.107Z,0
2017-12-24T00:30:18.808Z,0
2017-12-24T00:31:28.762Z,0
2017-12-24T00:32:38.714Z,0
2017-12-24T00:33:48.664Z,0
2017-12-24T00:34:58.611Z,0
2017-12-24T00:36:08.584Z,0
2017-12-24T00:37:18.540Z,0
2017-12-24T00:38:28.497Z,0
2017-12-24T00:39:38.453Z,0
2017-12-24T00:40:48.406Z,0
2017-12-24T00:41:58.117Z,0
2017-12-24T00:43:08.095Z,0
2017-12-24T00:44:18.059Z,0
2017-12-24T00:45:28.031Z,0
2017-12-24T00:46:37.989Z,0
2017-12-24T00:47:47.949Z,0
2017-12-24T00:48:57.914Z,0
2017-12-24T00:50:07.877Z,0
2017-12-24T00:51:17.576Z,0
2017-12-24T00:52:27.533Z,0
2017-12-24T00:53:37.230Z,0
2017-12-24T00:54:47.195Z,0
2017-12-24T00:55:56.914Z,0
2017-12-24T00:57:06.618Z,0
2017-12-24T00:58:16.569Z,0
2017-12-24T00:59:26.565Z,0
2017-12-24T01:00:36.579Z,0
2017-12-24T01:01:46.542Z,0
2017-12-24T01:02:56.504Z,0
2017-12-24T01:04:06.202Z,0
2017-12-24T01:05:15.907Z,0
2017-12-24T01:06:25.876Z,0
2017-12-24T01:07:35.838Z,0
2017-12-24T01:08:45.807Z,0
2017-12-24T01:09:55.754Z,0
2017-12-24T01:11:05.715Z,0
2017-12-24T01:12:15.670Z,0
2017-12-24T01:13:25.640Z,0
2017-12-24T01:14:35.598Z,0
2017-12-24T01:15:45.557Z,0
2017-12-24T01:16:55.512Z,0
2017-12-24T01:18:05.481Z,0
2017-12-24T01:19:15.428Z,0
2017-12-24T01:20:25.391Z,0
2017-12-24T01:21:34.845Z,0
2017-12-24T01:22:44.552Z,0
2017-12-24T01:23:54.515Z,0
2017-12-24T01:25:04.460Z,0
2017-12-24T01:26:14.395Z,0
2017-12-24T01:27:24.357Z,0
2017-12-24T01:28:34.312Z,0
2017-12-24T01:29:44.261Z,0
2017-12-24T01:30:54.211Z,0
2017-12-24T01:32:04.411Z,0
2017-12-24T01:33:14.408Z,0
2017-12-24T01:34:24.388Z,0
2017-12-24T01:35:34.339Z,0
2017-12-24T01:36:44.030Z,0
2017-12-24T01:37:53.993Z,0
2017-12-24T01:39:03.955Z,0
2017-12-24T01:40:13.405Z,0
2017-12-24T01:41:22.848Z,0
2017-12-24T01:42:32.807Z,0
2017-12-24T01:43:42.252Z,0
2017-12-24T01:44:52.207Z,0
2017-12-24T01:46:01.901Z,0
2017-12-24T01:47:11.599Z,0
2017-12-24T01:48:21.553Z,0
2017-12-24T01:49:31.508Z,0
2017-12-24T01:50:41.453Z,0
2017-12-24T01:51:51.419Z,0
2017-12-24T01:53:01.366Z,0
2017-12-24T01:54:11.324Z,0
2017-12-24T01:55:21.284Z,0
2017-12-24T01:56:31.325Z,0
2017-12-24T01:57:41.017Z,0
2017-12-24T01:58:50.978Z,0
2017-12-24T02:00:00.670Z,0
2017-12-24T02:01:10.649Z,0
2017-12-24T02:02:20.603Z,0
2017-12-24T02:03:30.568Z,0
2017-12-24T02:04:40.258Z,0
2017-12-24T02:05:49.975Z,0
2017-12-24T02:07:00.155Z,0
2017-12-24T02:08:09.845Z,0
2017-12-24T02:09:19.800Z,0
2017-12-24T02:10:29.494Z,0
2017-12-24T02:11:38.925Z,0
2017-12-24T02:12:48.628Z,0
2017-12-24T02:13:58.325Z,0
2017-12-24T02:15:08.278Z,0
2017-12-24T02:16:18.236Z,0
2017-12-24T02:17:28.215Z,0
2017-12-24T02:18:38.284Z,0
2017-12-24T02:19:48.248Z,0
2017-12-24T02:20:58.199Z,0
2017-12-24T02:22:08.151Z,0
2017-12-24T02:23:17.845Z,0
2017-12-24T02:24:27.803Z,0
2017-12-24T02:25:37.769Z,0
2017-12-24T02:26:47.473Z,0
2017-12-24T02:27:57.483Z,0
2017-12-24T02:29:07.436Z,0
2017-12-24T02:30:16.881Z,0
2017-12-24T02:31:26.836Z,0
2017-12-24T02:32:36.536Z,0
2017-12-24T02:33:46.496Z,0
2017-12-24T02:34:56.458Z,0
2017-12-24T02:36:06.165Z,0
2017-12-24T02:37:16.131Z,0
2017-12-24T02:38:26.094Z,0
2017-12-24T02:39:36.054Z,0
2017-12-24T02:40:46.013Z,0
2017-12-24T02:41:55.981Z,0
2017-12-24T02:43:05.691Z,0
2017-12-24T02:44:15.380Z,0
2017-12-24T02:45:25.087Z,0
2017-12-24T02:46:35.052Z,0
2017-12-24T02:47:44.788Z,0
2017-12-24T02:48:54.752Z,0
2017-12-24T02:50:04.725Z,0
2017-12-24T02:51:14.435Z,0
2017-12-24T02:52:24.391Z,0
2017-12-24T02:53:34.354Z,0
2017-12-24T02:54:44.316Z,0
2017-12-24T02:55:54.010Z,0
2017-12-24T02:57:03.708Z,0
2017-12-24T02:58:13.668Z,0
2017-12-24T02:59:23.623Z,0
2017-12-24T03:00:33.572Z,0
2017-12-24T03:01:43.519Z,0
2017-12-24T03:02:53.486Z,0
2017-12-24T03:04:03.431Z,0
2017-12-24T03:05:13.408Z,0
2017-12-24T03:06:22.862Z,0
2017-12-24T03:07:32.567Z,0
2017-12-24T03:08:42.525Z,0
2017-12-24T03:09:52.466Z,0
2017-12-24T03:11:02.447Z,0
2017-12-24T03:12:12.394Z,0
2017-12-24T03:13:22.683Z,0
2017-12-24T03:14:32.644Z,0
2017-12-24T03:15:42.355Z,0
2017-12-24T03:16:52.316Z,0
2017-12-24T03:18:02.280Z,0
2017-12-24T03:19:12.228Z,0
2017-12-24T03:20:22.181Z,0
2017-12-24T03:21:31.870Z,0
2017-12-24T03:22:41.828Z,0
2017-12-24T03:23:51.783Z,0
2017-12-24T03:25:01.219Z,0
2017-12-24T03:26:10.924Z,0
2017-12-24T03:27:20.887Z,0
2017-12-24T03:28:30.901Z,0
2017-12-24T03:29:40.852Z,0
2017-12-24T03:30:50.815Z,0
2017-12-24T03:32:00.793Z,0
2017-12-24T03:33:10.738Z,0
2017-12-24T03:34:20.175Z,0
2017-12-24T03:35:30.132Z,0
2017-12-24T03:36:39.830Z,0
2017-12-24T03:37:49.798Z,0
2017-12-24T03:38:59.805Z,0
2017-12-24T03:40:09.743Z,0
2017-12-24T03:41:19.699Z,0
2017-12-24T03:42:29.652Z,0
2017-12-24T03:43:39.603Z,0
2017-12-24T03:44:49.569Z,0
2017-12-24T03:45:59.274Z,0
2017-12-24T03:47:09.223Z,0
2017-12-24T03:48:18.920Z,0
2017-12-24T03:49:28.624Z,0
2017-12-24T03:50:38.634Z,0
2017-12-24T03:51:48.588Z,0
2017-12-24T03:52:58.275Z,0
2017-12-24T03:54:08.040Z,0
2017-12-24T03:55:17.996Z,0
2017-12-24T03:56:27.702Z,0
2017-12-24T03:57:37.651Z,0
2017-12-24T03:58:47.600Z,0
2017-12-24T03:59:57.551Z,0
2017-12-24T04:01:07.509Z,0
2017-12-24T04:02:17.459Z,0
2017-12-24T04:03:26.900Z,0
2017-12-24T04:04:36.595Z,0
2017-12-24T04:05:46.291Z,0
2017-12-24T04:06:56.251Z,0
2017-12-24T04:08:06.228Z,0
2017-12-24T04:09:16.179Z,0
2017-12-24T04:10:25.878Z,0
2017-12-24T04:11:35.564Z,0
2017-12-24T04:12:45.522Z,0
2017-12-24T04:13:55.209Z,0
2017-12-24T04:15:05.159Z,0
2017-12-24T04:16:15.121Z,0
2017-12-24T04:17:24.809Z,0
2017-12-24T04:18:34.511Z,0
2017-12-24T04:19:44.526Z,0
2017-12-24T04:20:54.481Z,0
2017-12-24T04:22:04.426Z,0
2017-12-24T04:23:14.408Z,0
2017-12-24T04:24:24.364Z,0
2017-12-24T04:25:34.308Z,0
2017-12-24T04:26:44.256Z,0
2017-12-24T04:27:54.214Z,0
2017-12-24T04:29:04.324Z,0
2017-12-24T04:30:14.271Z,0
2017-12-24T04:31:23.969Z,0
2017-12-24T04:32:33.923Z,0
2017-12-24T04:33:43.887Z,0
2017-12-24T04:34:53.321Z,0
2017-12-24T04:36:03.276Z,0
2017-12-24T04:37:12.977Z,0
2017-12-24T04:38:22.670Z,0
2017-12-24T04:39:32.614Z,0
2017-12-24T04:40:42.305Z,0
2017-12-24T04:41:52.251Z,0
2017-12-24T04:43:01.961Z,0
2017-12-24T04:44:11.913Z,0
2017-12-24T04:45:21.604Z,0
2017-12-24T04:46:31.561Z,0
2017-12-24T04:47:41.510Z,0
2017-12-24T04:48:51.196Z,0
2017-12-24T04:50:01.138Z,0
2017-12-24T04:51:11.093Z,0
2017-12-24T04:52:21.044Z,0
2017-12-24T04:53:30.737Z,0
2017-12-24T04:54:40.690Z,0
2017-12-24T04:55:50.641Z,0
2017-12-24T04:57:00.598Z,0
2017-12-24T04:58:10.541Z,0
2017-12-24T04:59:20.495Z,0
2017-12-24T05:00:30.197Z,0
2017-12-24T05:01:40.160Z,0
2017-12-24T05:02:50.124Z,0
2017-12-24T05:04:00.064Z,0
2017-12-24T05:05:10.016Z,0
2017-12-24T05:06:19.709Z,0
2017-12-24T05:07:29.660Z,0
2017-12-24T05:08:39.614Z,0
2017-12-24T05:09:49.385Z,0
2017-12-24T05:10:59.345Z,0
2017-12-24T05:12:09.300Z,0
2017-12-24T05:13:19.256Z,0
2017-12-24T05:14:29.185Z,0
2017-12-24T05:15:39.132Z,0
2017-12-24T05:16:49.084Z,0
2017-12-24T05:17:59.034Z,0
2017-12-24T05:19:08.740Z,0
2017-12-24T05:20:18.685Z,0
2017-12-24T05:21:28.140Z,0
2017-12-24T05:22:38.086Z,0
2017-12-24T05:23:47.782Z,0
2017-12-24T05:24:57.720Z,0
2017-12-24T05:26:07.478Z,0
2017-12-24T05:27:17.439Z,0
2017-12-24T05:28:27.391Z,0
2017-12-24T05:29:37.367Z,0
2017-12-24T05:30:47.063Z,0
2017-12-24T05:31:56.759Z,0
2017-12-24T05:33:06.721Z,0
2017-12-24T05:34:16.672Z,0
2017-12-24T05:35:26.367Z,0
2017-12-24T05:36:36.327Z,0
2017-12-24T05:37:46.019Z,0
2017-12-24T05:38:55.971Z,0
2017-12-24T05:40:05.913Z,0
2017-12-24T05:41:15.352Z,0
2017-12-24T05:42:25.039Z,0
2017-12-24T05:43:34.733Z,0
2017-12-24T05:44:44.424Z,0
2017-12-24T05:45:54.122Z,0
2017-12-24T05:47:04.106Z,0
2017-12-24T05:48:14.051Z,0
2017-12-24T05:49:23.995Z,0
2017-12-24T05:50:33.954Z,0
2017-12-24T05:51:43.923Z,0
2017-12-24T05:52:53.876Z,0
2017-12-24T05:54:03.863Z,0
2017-12-24T05:55:13.563Z,0
2017-12-24T05:56:23.510Z,0
2017-12-24T05:57:33.469Z,0
2017-12-24T05:58:43.427Z,0
2017-12-24T05:59:53.379Z,0
2017-12-24T06:01:03.335Z,0
2017-12-24T06:02:13.028Z,0
2017-12-24T06:03:23.043Z,0
2017-12-24T06:04:33.006Z,0
2017-12-24T06:05:42.965Z,0
2017-12-24T06:06:52.907Z,0
2017-12-24T06:08:02.596Z,0
2017-12-24T06:09:12.547Z,0
2017-12-24T06:10:22.245Z,0
2017-12-24T06:11:32.189Z,0
2017-12-24T06:12:42.148Z,0
2017-12-24T06:13:51.857Z,0
2017-12-24T06:15:01.813Z,0
2017-12-24T06:16:11.797Z,0
2017-12-24T06:17:21.738Z,0
2017-12-24T06:18:31.443Z,0
2017-12-24T06:19:41.393Z,0
2017-12-24T06:20:51.344Z,0
2017-12-24T06:22:01.044Z,0
2017-12-24T06:23:10.741Z,0
2017-12-24T06:24:20.433Z,0
2017-12-24T06:25:30.386Z,0
2017-12-24T06:26:40.355Z,0
2017-12-24T06:27:50.321Z,0
2017-12-24T06:28:59.764Z,0
2017-12-24T06:30:09.733Z,0
2017-12-24T06:31:19.422Z,0
2017-12-24T06:32:28.878Z,0
2017-12-24T06:33:38.577Z,0
2017-12-24T06:34:48.286Z,0
2017-12-24T06:35:57.991Z,0
2017-12-24T06:37:07.940Z,0
2017-12-24T06:38:17.897Z,0
2017-12-24T06:39:27.853Z,0
2017-12-24T06:40:37.825Z,0
2017-12-24T06:41:47.525Z,0
2017-12-24T06:42:57.482Z,0
2017-12-24T06:44:07.430Z,0
2017-12-24T06:45:17.737Z,0
2017-12-24T06:46:27.500Z,4
2017-12-24T06:47:37.470Z,4
2017-12-24T06:48:47.426Z,4
2017-12-24T06:49:57.122Z,0
2017-12-24T06:51:06.570Z,4
2017-12-24T06:52:16.270Z,4
2017-12-24T06:53:26.222Z,8
2017-12-24T06:54:36.166Z,8
2017-12-24T06:55:46.114Z,8
2017-12-24T06:56:56.067Z,12
2017-12-24T06:58:06.021Z,8
2017-12-24T06:59:15.730Z,12
2017-12-24T07:00:25.420Z,16
2017-12-24T07:01:35.117Z,16
2017-12-24T07:02:44.818Z,20
2017-12-24T07:03:54.786Z,24
2017-12-24T07:05:04.743Z,24
2017-12-24T07:06:14.435Z,28
2017-12-24T07:07:24.378Z,36
2017-12-24T07:08:34.355Z,44
2017-12-24T07:09:44.320Z,52
2017-12-24T07:10:54.017Z,68
2017-12-24T07:12:03.709Z,80
2017-12-24T07:13:13.661Z,88
2017-12-24T07:14:23.626Z,100
2017-12-24T07:15:33.579Z,108
2017-12-24T07:16:43.013Z,104
2017-12-24T07:17:52.969Z,136
2017-12-24T07:19:02.933Z,120
2017-12-24T07:20:12.896Z,128
2017-12-24T07:21:22.854Z,132
2017-12-24T07:22:32.563Z,160
2017-12-24T07:23:42.022Z,168
2017-12-24T07:24:51.981Z,176
2017-12-24T07:26:01.941Z,176
2017-12-24T07:27:11.636Z,172
2017-12-24T07:28:21.581Z,212
2017-12-24T07:29:31.270Z,204
2017-12-24T07:30:41.221Z,208
2017-12-24T07:31:51.172Z,216
2017-12-24T07:33:01.138Z,208
2017-12-24T07:34:11.094Z,236
2017-12-24T07:35:20.803Z,248
2017-12-24T07:36:30.763Z,276
2017-12-24T07:37:40.729Z,308
2017-12-24T07:38:50.683Z,320
2017-12-24T07:40:00.377Z,324
2017-12-24T07:41:10.326Z,328
2017-12-24T07:42:20.305Z,336
2017-12-24T07:43:30.021Z,348
2017-12-24T07:44:40.001Z,408
2017-12-24T07:45:50.004Z,420
2017-12-24T07:46:59.954Z,468
2017-12-24T07:48:09.902Z,504
2017-12-24T07:49:19.866Z,576
2017-12-24T07:50:29.880Z,652
2017-12-24T07:51:39.337Z,704
2017-12-24T07:52:49.293Z,692
2017-12-24T07:53:59.269Z,728
2017-12-24T07:55:09.227Z,784
2017-12-24T07:56:18.924Z,904
2017-12-24T07:57:28.615Z,960
2017-12-24T07:58:38.577Z,988
2017-12-24T07:59:48.268Z,1004
2017-12-24T08:00:57.958Z,1080
2017-12-24T08:02:07.910Z,1192
2017-12-24T08:03:17.858Z,1296
2017-12-24T08:04:27.547Z,1272
2017-12-24T08:05:37.245Z,1196
2017-12-24T08:06:47.193Z,1184
2017-12-24T08:07:56.899Z,1120
2017-12-24T08:09:06.340Z,1088
2017-12-24T08:10:16.298Z,1160
2017-12-24T08:11:25.991Z,1116
2017-12-24T08:12:35.943Z,1124
2017-12-24T08:13:45.627Z,1036
2017-12-24T08:14:55.591Z,984
2017-12-24T08:16:05.304Z,1008
2017-12-24T08:17:15.250Z,1180
2017-12-24T08:18:25.196Z,1140
2017-12-24T08:19:35.155Z,1280
2017-12-24T08:20:45.112Z,1220
2017-12-24T08:21:55.064Z,1244
2017-12-24T08:23:05.027Z,1160
2017-12-24T08:24:14.732Z,1136
2017-12-24T08:25:24.689Z,1080
2017-12-24T08:26:34.401Z,1092
2017-12-24T08:27:44.376Z,1176
2017-12-24T08:28:53.814Z,1216
2017-12-24T08:30:03.779Z,1300
2017-12-24T08:31:13.487Z,1260
2017-12-24T08:32:23.504Z,1336
2017-12-24T08:33:33.477Z,1384
2017-12-24T08:34:43.181Z,1352
2017-12-24T08:35:53.148Z,1244
2017-12-24T08:37:03.109Z,1400
2017-12-24T08:38:13.087Z,1400
2017-12-24T08:39:22.789Z,1340
2017-12-24T08:40:32.485Z,1440
2017-12-24T08:41:42.250Z,1344
2017-12-24T08:42:51.694Z,1364
2017-12-24T08:44:01.408Z,1460
2017-12-24T08:45:11.118Z,1468
2017-12-24T08:46:20.558Z,1580
2017-12-24T08:47:30.525Z,1632
2017-12-24T08:48:40.510Z,1808
2017-12-24T08:49:50.287Z,2000
2017-12-24T08:50:59.723Z,1908
2017-12-24T08:52:09.425Z,1848
2017-12-24T08:53:19.164Z,1928
2017-12-24T08:54:29.116Z,1916
2017-12-24T08:55:38.559Z,1916
2017-12-24T08:56:48.526Z,1880
2017-12-24T08:57:58.224Z,1956
2017-12-24T08:59:08.185Z,2104
2017-12-24T09:00:17.880Z,2160
2017-12-24T09:01:27.828Z,2200
2017-12-24T09:02:37.537Z,2284
2017-12-24T09:03:47.492Z,2420
2017-12-24T09:04:57.219Z,2412
2017-12-24T09:06:07.185Z,2508
2017-12-24T09:07:16.875Z,2368
2017-12-24T09:08:26.841Z,2460
2017-12-24T09:09:36.524Z,2336
2017-12-24T09:10:46.217Z,2256
2017-12-24T09:11:55.958Z,2232
2017-12-24T09:13:05.911Z,2204
2017-12-24T09:14:15.615Z,2200
2017-12-24T09:15:25.057Z,2128
2017-12-24T09:16:35.022Z,2040
2017-12-24T09:17:44.725Z,1996
2017-12-24T09:18:54.687Z,2048
2017-12-24T09:20:04.649Z,2304
2017-12-24T09:21:14.354Z,2388
2017-12-24T09:22:24.314Z,2292
2017-12-24T09:23:33.777Z,2408
2017-12-24T09:24:43.731Z,2384
2017-12-24T09:25:53.695Z,2640
2017-12-24T09:27:03.394Z,2892
2017-12-24T09:28:13.389Z,2724
2017-12-24T09:29:23.344Z,2492
2017-12-24T09:30:33.315Z,2308
2017-12-24T09:31:43.292Z,2472
2017-12-24T09:32:52.999Z,2420
2017-12-24T09:34:02.704Z,2548
2017-12-24T09:35:12.397Z,2888
2017-12-24T09:36:22.360Z,3196
2017-12-24T09:37:32.060Z,2936
2017-12-24T09:38:41.494Z,3016
2017-12-24T09:39:51.449Z,2828
2017-12-24T09:41:01.418Z,2852
2017-12-24T09:42:11.142Z,2884
2017-12-24T09:43:20.920Z,3060
2017-12-24T09:44:30.885Z,3212
2017-12-24T09:45:40.583Z,3080
2017-12-24T09:46:50.298Z,2552
2017-12-24T09:48:00.268Z,2272
2017-12-24T09:49:10.248Z,2340
2017-12-24T09:50:20.213Z,2140
2017-12-24T09:51:29.900Z,2188
2017-12-24T09:52:39.863Z,2116
2017-12-24T09:53:49.310Z,2056
2017-12-24T09:54:59.016Z,2088
2017-12-24T09:56:08.985Z,1852
2017-12-24T09:57:18.683Z,1856
2017-12-24T09:58:28.652Z,1704
2017-12-24T09:59:38.629Z,1704
2017-12-24T10:00:48.333Z,1656
2017-12-24T10:01:58.294Z,1624
2017-12-24T10:03:08.259Z,1792
2017-12-24T10:04:18.232Z,2016
2017-12-24T10:05:28.190Z,2084
2017-12-24T10:06:38.161Z,2056
2017-12-24T10:07:47.878Z,1988
2017-12-24T10:08:57.839Z,2116
2017-12-24T10:10:07.800Z,2164
2017-12-24T10:11:17.760Z,2492
2017-12-24T10:12:27.463Z,2492
2017-12-24T10:13:36.924Z,2420
2017-12-24T10:14:46.881Z,2740
2017-12-24T10:15:56.838Z,2388
2017-12-24T10:17:06.807Z,2468
2017-12-24T10:18:16.778Z,2700
2017-12-24T10:19:26.744Z,2604
2017-12-24T10:20:36.435Z,2500
2017-12-24T10:21:46.391Z,2668
2017-12-24T10:22:56.347Z,2460
2017-12-24T10:24:06.311Z,2348
2017-12-24T10:25:16.287Z,2304
2017-12-24T10:26:25.734Z,2544
2017-12-24T10:27:35.447Z,2356
2017-12-24T10:28:45.415Z,2280
2017-12-24T10:29:55.384Z,2296
2017-12-24T10:31:05.340Z,2540
2017-12-24T10:32:15.285Z,2820
2017-12-24T10:33:25.007Z,2888
2017-12-24T10:34:34.976Z,2520
2017-12-24T10:35:44.677Z,2524
2017-12-24T10:36:54.392Z,2980
2017-12-24T10:38:04.366Z,2924
2017-12-24T10:39:14.067Z,2884
2017-12-24T10:40:24.026Z,3032
2017-12-24T10:41:33.736Z,2932
2017-12-24T10:42:43.695Z,3516
2017-12-24T10:43:53.643Z,3400
2017-12-24T10:45:03.348Z,3156
2017-12-24T10:46:13.053Z,3100
2017-12-24T10:47:23.007Z,3196
2017-12-24T10:48:32.456Z,3608
2017-12-24T10:49:42.158Z,3488
2017-12-24T10:50:51.858Z,3308
2017-12-24T10:52:01.818Z,2844
2017-12-24T10:53:11.277Z,2836
2017-12-24T10:54:21.038Z,2656
2017-12-24T10:55:31.018Z,2828
2017-12-24T10:56:40.983Z,2796
2017-12-24T10:57:50.938Z,2368
2017-12-24T10:59:00.893Z,2188
2017-12-24T11:00:10.860Z,1844
2017-12-24T11:01:20.830Z,1768
2017-12-24T11:02:30.279Z,1828
2017-12-24T11:03:40.238Z,1864
2017-12-24T11:04:50.222Z,2024
2017-12-24T11:05:59.932Z,2148
2017-12-24T11:07:09.654Z,1960
2017-12-24T11:08:19.626Z,2188
2017-12-24T11:09:29.580Z,2012
2017-12-24T11:10:39.540Z,1728
2017-12-24T11:11:49.248Z,2068
2017-12-24T11:12:58.957Z,2212
2017-12-24T11:14:08.678Z,1816
2017-12-24T11:15:18.640Z,1644
2017-12-24T11:16:28.612Z,1840
2017-12-24T11:17:38.574Z,1824
2017-12-24T11:18:48.306Z,1840
2017-12-24T11:19:58.255Z,1956
2017-12-24T11:21:08.241Z,2140
2017-12-24T11:22:18.203Z,1968
2017-12-24T11:23:28.183Z,1828
2017-12-24T11:24:38.147Z,1816
2017-12-24T11:25:47.579Z,1844
2017-12-24T11:26:57.612Z,1876
2017-12-24T11:28:07.306Z,1756
2017-12-24T11:29:17.006Z,1756
2017-12-24T11:30:26.709Z,1828
2017-12-24T11:31:36.413Z,1804
2017-12-24T11:32:46.119Z,1992
2017-12-24T11:33:55.300Z,1980
2017-12-24T11:35:05.266Z,1588
2017-12-24T11:36:15.221Z,1300
2017-12-24T11:37:25.176Z,1676
2017-12-24T11:38:35.177Z,1988
2017-12-24T11:39:45.138Z,2256
2017-12-24T11:40:54.843Z,2464
2017-12-24T11:42:04.800Z,2280
2017-12-24T11:43:14.515Z,2612
2017-12-24T11:44:24.215Z,2924
2017-12-24T11:45:34.161Z,3124
2017-12-24T11:46:44.117Z,3280
2017-12-24T11:47:54.203Z,3388
2017-12-24T11:49:04.173Z,3328
2017-12-24T11:50:14.144Z,3624
2017-12-24T11:51:24.109Z,3704
2017-12-24T11:52:33.818Z,3800
2017-12-24T11:53:43.262Z,3556
2017-12-24T11:54:53.245Z,3340
2017-12-24T11:56:03.207Z,3820
2017-12-24T11:57:12.913Z,4552
2017-12-24T11:58:22.871Z,4900
2017-12-24T11:59:32.851Z,4556
2017-12-24T12:00:42.866Z,4548
2017-12-24T12:01:53.108Z,4880
2017-12-24T12:03:03.057Z,5124
2017-12-24T12:04:13.018Z,4468
2017-12-24T12:05:22.718Z,4032
2017-12-24T12:06:32.672Z,4720
2017-12-24T12:07:42.118Z,3476
2017-12-24T12:08:52.102Z,2608
2017-12-24T12:10:01.817Z,2968
2017-12-24T12:11:11.524Z,2944
2017-12-24T12:12:21.235Z,2684
2017-12-24T12:13:31.212Z,2784
2017-12-24T12:14:40.900Z,3204
2017-12-24T12:15:50.869Z,2920
2017-12-24T12:17:00.839Z,2684
2017-12-24T12:18:10.538Z,2596
2017-12-24T12:19:20.520Z,2848
2017-12-24T12:20:30.490Z,3172
2017-12-24T12:21:40.454Z,3076
2017-12-24T12:22:50.423Z,3364
2017-12-24T12:24:00.681Z,3340
2017-12-24T12:25:10.657Z,2696
2017-12-24T12:26:20.629Z,3040
2017-12-24T12:27:30.612Z,2816
2017-12-24T12:28:40.071Z,2840
2017-12-24T12:29:50.038Z,2504
2017-12-24T12:30:59.999Z,2552
2017-12-24T12:32:09.973Z,2632
2017-12-24T12:33:19.988Z,2548
2017-12-24T12:34:29.941Z,2084
2017-12-24T12:35:39.891Z,2232
2017-12-24T12:36:49.861Z,1928
2017-12-24T12:37:59.580Z,2180
2017-12-24T12:39:09.538Z,2148
2017-12-24T12:40:18.984Z,2160
2017-12-24T12:41:28.959Z,1404
2017-12-24T12:42:38.951Z,1752
2017-12-24T12:43:48.905Z,1736
2017-12-24T12:44:58.869Z,1516
2017-12-24T12:46:08.310Z,1548
2017-12-24T12:47:18.281Z,1156
2017-12-24T12:48:27.983Z,1084
2017-12-24T12:49:37.942Z,1240
2017-12-24T12:50:47.894Z,1240
2017-12-24T12:51:57.846Z,1232
2017-12-24T12:53:07.812Z,1192
2017-12-24T12:54:17.504Z,1356
2017-12-24T12:55:27.208Z,1536
2017-12-24T12:56:37.164Z,1640
2017-12-24T12:57:47.121Z,1620
2017-12-24T12:58:56.829Z,1984
2017-12-24T13:00:06.538Z,2480
2017-12-24T13:01:15.996Z,2168
2017-12-24T13:02:25.453Z,2120
2017-12-24T13:03:34.902Z,2020
2017-12-24T13:04:44.886Z,1868
2017-12-24T13:05:54.838Z,1984
2017-12-24T13:07:05.035Z,2144
2017-12-24T13:08:14.747Z,2056
2017-12-24T13:09:24.711Z,1644
2017-12-24T13:10:34.415Z,1752
2017-12-24T13:11:44.377Z,1896
2017-12-24T13:12:54.112Z,1716
2017-12-24T13:14:04.066Z,1676
2017-12-24T13:15:13.523Z,1712
2017-12-24T13:16:23.481Z,1864
2017-12-24T13:17:33.388Z,1760
2017-12-24T13:18:43.084Z,1768
2017-12-24T13:19:53.047Z,1452
2017-12-24T13:21:02.999Z,1320
2017-12-24T13:22:12.687Z,1296
2017-12-24T13:23:22.145Z,1492
2017-12-24T13:24:32.119Z,1380
2017-12-24T13:25:41.820Z,1376
2017-12-24T13:26:51.783Z,1280
2017-12-24T13:28:01.749Z,1220
2017-12-24T13:29:11.721Z,1208
2017-12-24T13:30:21.421Z,1384
2017-12-24T13:31:31.391Z,1644
2017-12-24T13:32:41.403Z,1836
2017-12-24T13:33:51.131Z,1792
2017-12-24T13:35:01.084Z,1700
2017-12-24T13:36:10.798Z,1628
2017-12-24T13:37:20.758Z,1332
2017-12-24T13:38:30.728Z,1160
2017-12-24T13:39:40.706Z,1140
2017-12-24T13:40:50.668Z,1140
2017-12-24T13:42:00.633Z,1116
2017-12-24T13:43:10.591Z,1116
2017-12-24T13:44:20.281Z,1348
2017-12-24T13:45:29.976Z,1640
2017-12-24T13:46:39.953Z,1844
2017-12-24T13:47:49.910Z,1608
2017-12-24T13:48:59.878Z,1792
2017-12-24T13:50:09.840Z,1724
2017-12-24T13:51:19.292Z,1768
2017-12-24T13:52:29.254Z,1568
2017-12-24T13:53:39.252Z,1508
2017-12-24T13:54:48.437Z,1320
2017-12-24T13:55:58.390Z,1360
2017-12-24T13:57:08.341Z,1392
2017-12-24T13:58:18.068Z,1364
2017-12-24T13:59:27.795Z,1192
2017-12-24T14:00:37.760Z,1236
2017-12-24T14:01:47.212Z,1192
2017-12-24T14:02:57.188Z,1088
2017-12-24T14:04:07.170Z,1020
2017-12-24T14:05:17.129Z,936
2017-12-24T14:06:27.330Z,1008
2017-12-24T14:07:37.032Z,1004
2017-12-24T14:08:46.993Z,976
2017-12-24T14:09:56.695Z,976
2017-12-24T14:11:06.660Z,892
2017-12-24T14:12:16.618Z,884
2017-12-24T14:13:26.571Z,828
2017-12-24T14:14:36.528Z,764
2017-12-24T14:15:46.511Z,804
2017-12-24T14:16:56.473Z,680
2017-12-24T14:18:06.189Z,700
2017-12-24T14:19:16.159Z,600
2017-12-24T14:20:26.108Z,608
2017-12-24T14:21:36.068Z,588
2017-12-24T14:22:46.021Z,552
2017-12-24T14:23:55.986Z,528
2017-12-24T14:25:05.950Z,480
2017-12-24T14:26:15.415Z,488
2017-12-24T14:27:25.119Z,460
2017-12-24T14:28:34.829Z,420
2017-12-24T14:29:44.794Z,408
2017-12-24T14:30:54.757Z,364
2017-12-24T14:32:04.461Z,380
2017-12-24T14:33:14.642Z,336
2017-12-24T14:34:24.685Z,304
2017-12-24T14:35:34.397Z,312
2017-12-24T14:36:44.189Z,296
2017-12-24T14:37:53.899Z,264
2017-12-24T14:39:03.863Z,256
2017-12-24T14:40:13.833Z,228
2017-12-24T14:41:23.802Z,228
2017-12-24T14:42:33.806Z,228
2017-12-24T14:43:43.554Z,204
2017-12-24T14:44:53.525Z,200
2017-12-24T14:46:03.536Z,184
2017-12-24T14:47:13.489Z,172
2017-12-24T14:48:23.458Z,164
2017-12-24T14:49:33.410Z,160
2017-12-24T14:50:43.360Z,144
2017-12-24T14:51:53.055Z,140
2017-12-24T14:53:03.020Z,132
2017-12-24T14:54:13.010Z,120
2017-12-24T14:55:22.966Z,116
2017-12-24T14:56:32.922Z,108
2017-12-24T14:57:42.867Z,100
2017-12-24T14:58:52.572Z,96
2017-12-24T15:00:02.605Z,92
2017-12-24T15:01:12.581Z,84
2017-12-24T15:02:22.276Z,76
2017-12-24T15:03:32.234Z,64
2017-12-24T15:04:41.948Z,56
2017-12-24T15:05:51.655Z,52
2017-12-24T15:07:01.368Z,52
2017-12-24T15:08:11.083Z,48
2017-12-24T15:09:21.057Z,44
2017-12-24T15:10:30.767Z,36
2017-12-24T15:11:40.736Z,32
2017-12-24T15:12:50.173Z,28
2017-12-24T15:13:59.859Z,24
2017-12-24T15:15:09.831Z,20
2017-12-24T15:16:19.789Z,24
2017-12-24T15:17:29.752Z,24
2017-12-24T15:18:39.444Z,16
2017-12-24T15:19:49.405Z,16
2017-12-24T15:20:59.428Z,16
2017-12-24T15:22:09.194Z,16
2017-12-24T15:23:19.160Z,12
2017-12-24T15:24:29.114Z,12
2017-12-24T15:25:39.073Z,8
2017-12-24T15:26:49.126Z,8
2017-12-24T15:27:59.096Z,8
2017-12-24T15:29:09.057Z,4
2017-12-24T15:30:19.020Z,4
2017-12-24T15:31:28.973Z,4
2017-12-24T15:32:38.684Z,0
2017-12-24T15:33:48.640Z,4
2017-12-24T15:34:58.602Z,4
2017-12-24T15:36:08.551Z,0
2017-12-24T15:37:18.246Z,0
2017-12-24T15:38:28.288Z,0
2017-12-24T15:39:38.241Z,0
2017-12-24T15:40:47.938Z,0
2017-12-24T15:41:57.909Z,0
2017-12-24T15:43:07.601Z,0
2017-12-24T15:44:17.552Z,0
2017-12-24T15:45:27.520Z,0
2017-12-24T15:46:37.498Z,0
2017-12-24T15:47:46.952Z,0
2017-12-24T15:48:56.915Z,0
2017-12-24T15:50:06.619Z,0
2017-12-24T15:51:16.321Z,0
2017-12-24T15:52:26.014Z,0
2017-12-24T15:53:35.984Z,0
2017-12-24T15:54:45.681Z,0
2017-12-24T15:55:55.395Z,0
2017-12-24T15:57:05.348Z,0
2017-12-24T15:58:15.296Z,0
2017-12-24T15:59:25.256Z,0
2017-12-24T16:00:35.288Z,0
2017-12-24T16:01:45.246Z,0
2017-12-24T16:02:55.206Z,0
2017-12-24T16:04:04.907Z,0
2017-12-24T16:05:14.892Z,0
2017-12-24T16:06:24.856Z,0
2017-12-24T16:07:34.829Z,0
2017-12-24T16:08:44.543Z,0
2017-12-24T16:09:53.989Z,0
2017-12-24T16:11:03.951Z,0
2017-12-24T16:12:13.911Z,0
2017-12-24T16:13:23.620Z,0
2017-12-24T16:14:33.562Z,0
2017-12-24T16:15:43.530Z,0
2017-12-24T16:16:53.493Z,0
2017-12-24T16:18:03.198Z,0
2017-12-24T16:19:12.889Z,0
2017-12-24T16:20:22.850Z,0
2017-12-24T16:21:32.832Z,0
2017-12-24T16:22:43.247Z,0